createdAt,value
2022-08-05T00:04:46.294Z,101080.38
2022-08-05T00:10:08.341Z,101054.03
2022-08-05T00:15:14.412Z,101046.47
2022-08-05T00:20:42.529Z,101054.25
2022-08-05T00:25:46.087Z,101064.25
2022-08-05T00:30:46.531Z,101061.88
2022-08-05T00:36:16.119Z,101066.88
2022-08-05T00:41:14.143Z,101083.78
2022-08-05T00:46:15.930Z,101041.97
2022-08-05T00:51:51.194Z,101043.03
2022-08-05T00:56:51.561Z,101038.31
2022-08-05T01:01:55.655Z,101056.09
2022-08-05T01:07:05.979Z,101046.94
2022-08-05T01:12:19.176Z,101041.72
2022-08-05T01:17:45.885Z,101065.09
2022-08-05T01:23:36.245Z,101063.38
2022-08-05T01:28:41.196Z,101061.63
2022-08-05T01:34:22.557Z,101061.84
2022-08-05T01:39:36.838Z,101025.81
2022-08-05T01:44:54.073Z,101040.69
2022-08-05T01:50:01.847Z,101041.59
2022-08-05T01:55:06.009Z,101043.94
2022-08-05T02:00:06.041Z,101041.44
2022-08-05T02:05:12.846Z,101045.44
2022-08-05T02:10:17.686Z,101019.09
2022-08-05T02:15:33.274Z,101039.56
2022-08-05T02:20:43.645Z,101044.00
2022-08-05T02:25:50.220Z,101032.38
2022-08-05T02:30:58.567Z,101039.47
2022-08-05T02:36:01.213Z,101039.16
2022-08-05T02:41:00.611Z,101046.72
2022-08-05T02:46:18.728Z,101034.22
2022-08-05T02:52:03.370Z,101071.00
2022-08-05T02:56:52.707Z,101045.53
2022-08-05T03:01:52.226Z,101057.03
2022-08-05T03:06:55.567Z,101055.16
2022-08-05T03:12:13.793Z,101041.13
2022-08-05T03:17:20.255Z,101058.34
2022-08-05T03:22:32.196Z,101077.09
2022-08-05T03:27:59.574Z,101046.97
2022-08-05T03:32:56.683Z,101056.16
2022-08-05T03:37:58.488Z,101062.97
2022-08-05T03:43:15.940Z,101049.66
2022-08-05T03:48:29.228Z,101068.09
2022-08-05T03:55:06.890Z,101062.34
2022-08-05T03:59:15.142Z,101074.03
2022-08-05T04:04:26.557Z,101065.75
2022-08-05T04:09:27.350Z,101057.44
2022-08-05T04:14:29.745Z,101086.19
2022-08-05T04:19:42.028Z,101055.78
2022-08-05T04:24:52.589Z,101059.59
2022-08-05T04:29:53.336Z,101042.56
2022-08-05T04:34:53.545Z,101057.38
2022-08-05T04:39:57.261Z,101058.56
2022-08-05T04:45:03.065Z,101044.22
2022-08-05T04:50:11.509Z,101062.97
2022-08-05T04:55:16.238Z,101091.41
2022-08-05T05:00:23.515Z,101063.28
2022-08-05T05:05:28.216Z,101075.78
2022-08-05T05:10:52.608Z,101066.41
2022-08-05T05:16:02.121Z,101061.81
2022-08-05T05:21:07.731Z,101050.94
2022-08-05T05:26:06.825Z,101054.38
2022-08-05T05:31:05.860Z,101054.53
2022-08-05T05:36:06.686Z,101045.16
2022-08-05T05:41:07.675Z,101035.09
2022-08-05T05:46:12.121Z,101034.41
2022-08-05T05:51:28.170Z,101023.44
2022-08-05T05:56:32.862Z,101029.63
2022-08-05T06:01:39.922Z,101054.72
2022-08-05T06:06:42.142Z,101028.09
2022-08-05T06:11:40.983Z,101039.06
2022-08-05T06:17:22.237Z,101042.34
2022-08-05T06:22:33.578Z,101056.94
2022-08-05T06:28:10.411Z,101035.81
2022-08-05T06:32:56.968Z,101062.31
2022-08-05T06:37:59.015Z,101034.28
2022-08-05T06:43:01.424Z,101035.63
2022-08-05T06:48:44.140Z,101018.78
2022-08-05T06:53:22.455Z,101055.19
2022-08-05T06:58:29.741Z,101053.88
2022-08-05T07:03:36.480Z,101041.84
2022-08-05T07:08:34.811Z,101051.97
2022-08-05T07:13:59.865Z,101060.00
2022-08-05T07:19:01.794Z,101037.16
2022-08-05T07:24:01.217Z,101043.09
2022-08-05T07:29:01.509Z,101033.66
2022-08-05T07:34:02.073Z,101041.31
2022-08-05T07:39:08.893Z,101035.38
2022-08-05T07:44:31.310Z,101038.94
2022-08-05T07:49:32.281Z,101036.88
2022-08-05T07:54:49.237Z,101056.44
2022-08-05T07:59:48.794Z,101015.34
2022-08-05T08:04:55.847Z,101017.00
2022-08-05T08:09:55.025Z,101033.94
2022-08-05T08:14:56.593Z,101041.97
2022-08-05T08:20:43.531Z,101037.94
2022-08-05T08:25:16.079Z,101037.81
2022-08-05T08:30:27.006Z,101018.56
2022-08-05T08:35:53.845Z,101019.31
2022-08-05T08:41:05.853Z,100999.34
2022-08-05T08:46:06.163Z,101041.19
2022-08-05T08:51:54.571Z,101022.16
2022-08-05T08:56:47.617Z,100996.50
2022-08-05T09:01:57.591Z,101009.91
2022-08-05T09:07:03.692Z,100998.47
2022-08-05T09:12:30.035Z,100993.72
2022-08-05T09:17:43.088Z,100980.28
2022-08-05T09:23:19.685Z,101006.59
2022-08-05T09:28:31.475Z,100969.94
2022-08-05T09:33:35.232Z,100967.06
2022-08-05T09:38:46.255Z,100996.81
2022-08-05T09:43:45.290Z,100980.25
2022-08-05T09:49:07.345Z,100959.28
2022-08-05T09:54:11.570Z,100953.03
2022-08-05T09:59:17.248Z,100966.00
2022-08-05T10:04:19.067Z,100966.63
2022-08-05T10:09:45.156Z,100944.44
2022-08-05T10:14:54.329Z,100965.16
2022-08-05T10:20:04.458Z,100950.78
2022-08-05T10:25:15.592Z,100957.31
2022-08-05T10:32:46.670Z,100930.09
2022-08-05T10:35:40.606Z,100916.06
2022-08-05T10:40:58.221Z,100916.38
2022-08-05T10:46:06.239Z,100914.81
2022-08-05T10:51:29.772Z,100918.94
2022-08-05T10:56:34.633Z,100911.50
2022-08-05T11:01:54.750Z,100900.63
2022-08-05T11:07:16.309Z,100885.22
2022-08-05T11:12:35.114Z,100915.13
2022-08-05T11:17:59.813Z,100862.19
2022-08-05T11:24:02.526Z,100889.69
2022-08-05T11:29:13.291Z,100877.53
2022-08-05T11:34:38.739Z,100881.53
2022-08-05T11:40:00.510Z,100855.34
2022-08-05T11:45:14.513Z,100872.75
2022-08-05T11:50:31.453Z,100876.53
2022-08-05T11:55:36.417Z,100861.19
2022-08-05T12:00:37.992Z,100871.44
2022-08-05T12:05:43.444Z,100864.16
2022-08-05T12:10:45.848Z,100844.47
2022-08-05T12:15:49.717Z,100845.44
2022-08-05T12:20:51.937Z,100853.81
2022-08-05T12:26:08.203Z,100858.63
2022-08-05T12:31:09.058Z,100849.16
2022-08-05T12:36:14.826Z,100853.75
2022-08-05T12:41:17.482Z,100856.09
2022-08-05T12:46:31.438Z,100836.25
2022-08-05T12:52:13.116Z,100833.63
2022-08-05T12:57:01.456Z,100825.38
2022-08-05T13:02:07.894Z,100842.81
2022-08-05T13:07:55.889Z,100822.69
2022-08-05T13:12:57.620Z,100823.84
2022-08-05T13:18:05.957Z,100818.06
2022-08-05T13:23:08.847Z,100810.63
2022-08-05T13:28:16.258Z,100823.13
2022-08-05T13:34:24.831Z,100785.78
2022-08-05T13:38:43.256Z,100813.94
2022-08-05T13:43:54.585Z,100810.94
2022-08-05T13:48:57.826Z,100781.88
2022-08-05T13:54:11.670Z,100791.53
2022-08-05T13:59:24.023Z,100789.50
2022-08-05T14:05:00.529Z,100779.44
2022-08-05T14:10:00.507Z,100773.13
2022-08-05T14:16:04.580Z,100765.19
2022-08-05T14:20:38.247Z,100765.00
2022-08-05T14:25:45.038Z,100766.56
2022-08-05T14:30:51.900Z,100774.47
2022-08-05T14:35:54.352Z,100757.44
2022-08-05T14:40:55.908Z,100758.66
2022-08-05T14:46:08.773Z,100735.13
2022-08-05T14:51:09.972Z,100730.97
2022-08-05T14:57:00.350Z,100735.13
2022-08-05T15:08:58.720Z,100722.41
2022-08-05T15:13:52.172Z,100703.38
2022-08-05T15:18:54.765Z,100716.94
2022-08-05T15:23:59.917Z,100709.19
2022-08-05T15:28:59.268Z,100719.25
2022-08-05T15:34:32.076Z,100706.50
2022-08-05T15:40:58.323Z,100712.28
2022-08-05T15:45:07.050Z,100710.06
2022-08-05T15:50:13.969Z,100714.09
2022-08-05T15:55:25.107Z,100699.56
2022-08-05T16:01:03.485Z,100711.16
2022-08-05T16:06:06.561Z,100709.69
2022-08-05T16:11:05.355Z,100703.84
2022-08-05T16:16:25.484Z,100695.31
2022-08-05T16:22:00.136Z,100697.69
2022-08-05T16:27:02.049Z,100689.34
2022-08-05T16:32:14.175Z,100692.50
2022-08-05T16:48:43.082Z,100694.53
2022-08-05T16:54:04.998Z,100693.50
2022-08-05T16:59:14.671Z,100715.59
2022-08-05T17:04:15.258Z,100725.34
2022-08-05T17:09:15.718Z,100703.47
2022-08-05T17:14:34.465Z,100721.44
2022-08-05T17:19:36.543Z,100730.72
2022-08-05T17:24:42.285Z,100707.69
2022-08-05T17:29:59.515Z,100715.16
2022-08-05T17:35:04.314Z,100731.38
2022-08-05T17:40:03.871Z,100737.56
2022-08-05T17:45:18.106Z,100722.47
2022-08-05T17:50:27.631Z,100742.28
2022-08-05T17:55:37.217Z,100723.78
2022-08-05T18:00:44.657Z,100726.28
2022-08-05T18:05:53.447Z,100728.09
2022-08-05T18:10:54.136Z,100748.63
2022-08-05T18:15:52.612Z,100749.28
2022-08-05T18:21:19.554Z,100729.97
2022-08-05T18:26:27.800Z,100748.09
2022-08-05T18:31:33.958Z,100754.91
2022-08-05T18:36:41.356Z,100746.75
2022-08-05T18:42:01.850Z,100750.97
2022-08-05T18:47:15.663Z,100767.47
2022-08-05T18:52:35.896Z,100761.88
2022-08-05T18:57:50.100Z,100758.38
2022-08-05T19:03:04.732Z,100764.22
2022-08-05T19:08:21.331Z,100766.66
2022-08-05T19:13:22.669Z,100756.69
2022-08-05T19:18:40.470Z,100753.38
2022-08-05T19:24:07.124Z,100770.03
2022-08-05T19:29:07.162Z,100782.19
2022-08-05T19:34:09.212Z,100754.59
2022-08-05T19:39:13.206Z,100763.03
2022-08-05T19:44:17.295Z,100765.16
2022-08-05T19:49:19.442Z,100771.91
2022-08-05T19:54:31.559Z,100794.03
2022-08-05T20:00:01.193Z,100763.28
2022-08-05T20:04:58.854Z,100778.25
2022-08-05T20:10:11.641Z,100787.97
2022-08-05T20:15:23.073Z,100784.78
2022-08-05T20:20:49.522Z,100758.69
2022-08-05T20:25:52.236Z,100766.75
2022-08-05T20:30:53.212Z,100768.22
2022-08-05T20:35:55.431Z,100757.59
2022-08-05T20:40:55.519Z,100758.09
2022-08-05T20:46:00.231Z,100760.94
2022-08-05T20:51:00.671Z,100746.47
2022-08-05T20:56:09.366Z,100761.22
2022-08-05T21:01:11.858Z,100745.56
2022-08-05T21:06:27.523Z,100749.09
2022-08-05T21:12:07.662Z,100737.63
2022-08-05T21:16:52.909Z,100738.44
2022-08-05T21:22:00.597Z,100755.38
2022-08-05T21:27:02.096Z,100738.16
2022-08-05T21:32:03.891Z,100751.56
2022-08-05T21:37:05.639Z,100765.41
2022-08-05T21:42:05.554Z,100758.63
2022-08-05T21:47:32.853Z,100732.88
2022-08-05T21:52:28.850Z,100762.44
2022-08-05T21:57:52.877Z,100721.50
2022-08-05T22:03:15.937Z,100741.25
2022-08-05T22:08:51.988Z,100730.94
2022-08-05T22:14:05.741Z,100759.81
2022-08-05T22:20:00.467Z,100745.00
2022-08-05T22:24:57.767Z,100737.81
2022-08-05T22:30:00.921Z,100741.09
2022-08-05T22:34:59.170Z,100730.25
2022-08-05T22:39:57.866Z,100746.75
2022-08-05T22:45:00.110Z,100728.53
2022-08-05T22:50:21.599Z,100731.69
2022-08-05T22:55:24.022Z,100722.09
2022-08-05T23:00:27.292Z,100704.09
2022-08-05T23:05:25.522Z,100709.47
2022-08-05T23:10:24.432Z,100738.50
2022-08-05T23:15:29.380Z,100722.31
2022-08-05T23:20:37.531Z,100715.25
2022-08-05T23:25:52.099Z,100718.31
2022-08-05T23:31:17.159Z,100728.38
2022-08-05T23:36:28.344Z,100734.78
2022-08-05T23:41:30.589Z,100720.38
2022-08-05T23:46:33.785Z,100715.38
2022-08-05T23:52:25.261Z,100737.88
2022-08-05T23:57:24.701Z,100709.34
